createdAt,value
2017-02-22T00:00:35.734Z,0.73
2017-02-22T00:01:46.451Z,0.71
2017-02-22T00:02:57.180Z,0.73
2017-02-22T00:04:07.897Z,0.73
2017-02-22T00:05:18.197Z,0.67
2017-02-22T00:06:28.893Z,0.7
2017-02-22T00:07:39.587Z,0.64
2017-02-22T00:08:49.925Z,0.71
2017-02-22T00:10:00.236Z,0.67
2017-02-22T00:11:10.534Z,0.67
2017-02-22T00:12:21.257Z,0.59
2017-02-22T00:13:31.957Z,0.66
2017-02-22T00:14:42.651Z,0.63
2017-02-22T00:15:52.966Z,0.58
2017-02-22T00:17:03.673Z,0.63
2017-02-22T00:18:13.979Z,0.59
2017-02-22T00:19:24.285Z,0.61
2017-02-22T00:20:34.985Z,0.63
2017-02-22T00:21:45.680Z,0.68
2017-02-22T00:22:56.376Z,0.51
2017-02-22T00:24:07.068Z,0.56
2017-02-22T00:25:17.396Z,0.48
2017-02-22T00:26:28.093Z,0.49
2017-02-22T00:27:38.801Z,0.49
2017-02-22T00:28:49.118Z,0.47
2017-02-22T00:29:59.431Z,0.58
2017-02-22T00:31:10.122Z,0.45
2017-02-22T00:32:20.428Z,0.49
2017-02-22T00:33:31.136Z,0.42
2017-02-22T00:34:41.827Z,0.49
2017-02-22T00:35:52.138Z,0.42
2017-02-22T00:37:02.855Z,0.42
2017-02-22T00:38:13.560Z,0.33
2017-02-22T00:39:26.555Z,0.42
2017-02-22T00:40:37.253Z,0.4
2017-02-22T00:41:47.965Z,0.44
2017-02-22T00:42:58.657Z,0.34
2017-02-22T00:44:09.373Z,0.37
2017-02-22T00:45:19.674Z,0.33
2017-02-22T00:46:30.369Z,0.39
2017-02-22T00:47:41.069Z,0.4
2017-02-22T00:48:51.389Z,0.34
2017-02-22T00:50:01.302Z,0.37
2017-02-22T00:51:11.611Z,0.37
2017-02-22T00:52:22.336Z,0.36
2017-02-22T00:53:33.030Z,0.39
2017-02-22T00:54:43.717Z,0.36
2017-02-22T00:55:54.014Z,0.33
2017-02-22T00:57:04.713Z,0.3
2017-02-22T00:58:15.412Z,0.3
2017-02-22T00:59:26.099Z,0.3
2017-02-22T01:00:36.795Z,0.24
2017-02-22T01:01:47.496Z,0.26
2017-02-22T01:02:58.218Z,0.24
2017-02-22T01:04:08.960Z,0.26
2017-02-22T01:05:19.656Z,0.18
2017-02-22T01:06:30.357Z,0.24
2017-02-22T01:07:41.057Z,0.23
2017-02-22T01:08:51.752Z,0.23
2017-02-22T01:10:02.447Z,0.19
2017-02-22T01:11:12.746Z,0.18
2017-02-22T01:12:23.461Z,0.12
2017-02-22T01:13:34.161Z,0.29
2017-02-22T01:14:44.452Z,0.27
2017-02-22T01:15:55.145Z,0.3
2017-02-22T01:17:05.456Z,0.26
2017-02-22T01:18:16.161Z,0.26
2017-02-22T01:19:26.886Z,0.2
2017-02-22T01:20:37.575Z,0.24
2017-02-22T01:21:48.282Z,0.31
2017-02-22T01:22:58.989Z,0.33
2017-02-22T01:24:09.310Z,0.27
2017-02-22T01:25:20.012Z,0.26
2017-02-22T01:26:30.699Z,0.26
2017-02-22T01:27:41.395Z,0.23
2017-02-22T01:28:52.142Z,0.2
2017-02-22T01:30:02.902Z,0.19
2017-02-22T01:31:13.206Z,0.2
2017-02-22T01:32:23.511Z,0.15
2017-02-22T01:33:34.202Z,0.18
2017-02-22T01:34:44.913Z,0.11
2017-02-22T01:35:55.245Z,0.18
2017-02-22T01:37:05.947Z,0.12
2017-02-22T01:38:16.632Z,0.08
2017-02-22T01:39:26.968Z,0.13
2017-02-22T01:40:37.660Z,0.15
2017-02-22T01:41:48.367Z,0.2
2017-02-22T01:42:58.270Z,0.19
2017-02-22T01:44:08.962Z,0.12
2017-02-22T01:45:19.669Z,0.06
2017-02-22T01:46:30.371Z,0.15
2017-02-22T01:47:41.061Z,0.11
2017-02-22T01:48:51.756Z,0.15
2017-02-22T01:50:02.455Z,0.18
2017-02-22T01:51:12.749Z,0.13
2017-02-22T01:52:23.453Z,0.16
2017-02-22T01:53:34.145Z,0.11
2017-02-22T01:54:44.443Z,0.23
2017-02-22T01:55:55.145Z,0.2
2017-02-22T01:57:05.837Z,0.19
2017-02-22T01:58:16.547Z,0.16
2017-02-22T01:59:26.856Z,0.16
2017-02-22T02:00:37.563Z,0.16
2017-02-22T02:01:48.262Z,0.18
2017-02-22T02:02:58.961Z,0.19
2017-02-22T02:04:09.650Z,0.08
2017-02-22T02:05:20.355Z,0.09
2017-02-22T02:06:31.086Z,0.06
2017-02-22T02:07:41.802Z,0.06
2017-02-22T02:08:52.519Z,0.09
2017-02-22T02:10:02.831Z,0.11
2017-02-22T02:11:13.525Z,0.06
2017-02-22T02:12:24.242Z,0.05
2017-02-22T02:13:34.942Z,0.05
2017-02-22T02:14:45.655Z,0.09
2017-02-22T02:15:56.362Z,-0.02
2017-02-22T02:17:07.051Z,0.08
2017-02-22T02:18:17.343Z,0.09
2017-02-22T02:19:28.034Z,-0.03
2017-02-22T02:20:38.729Z,0
2017-02-22T02:21:49.036Z,0.12
2017-02-22T02:22:59.742Z,0.01
2017-02-22T02:24:10.048Z,0
2017-02-22T02:25:20.357Z,-0.02
2017-02-22T02:26:31.052Z,0.08
2017-02-22T02:27:41.748Z,0.08
2017-02-22T02:28:52.452Z,0.09
2017-02-22T02:30:03.175Z,0.06
2017-02-22T02:31:13.887Z,0.12
2017-02-22T02:32:24.185Z,0.08
2017-02-22T02:33:34.898Z,0.09
2017-02-22T02:34:45.603Z,0.06
2017-02-22T02:35:56.303Z,0.08
2017-02-22T02:37:07.027Z,0.06
2017-02-22T02:38:17.727Z,0.11
2017-02-22T02:39:28.450Z,0.19
2017-02-22T02:40:39.146Z,0.08
2017-02-22T02:41:49.853Z,0.06
2017-02-22T02:43:00.546Z,0.11
2017-02-22T02:44:11.260Z,0.05
2017-02-22T02:45:21.571Z,0.09
2017-02-22T02:46:32.277Z,0.06
2017-02-22T02:47:42.997Z,0.12
2017-02-22T02:48:53.715Z,0.09
2017-02-22T02:50:04.415Z,0.11
2017-02-22T02:51:15.127Z,0.06
2017-02-22T02:52:25.834Z,0.08
2017-02-22T02:53:36.537Z,0.09
2017-02-22T02:54:46.839Z,0.11
2017-02-22T02:55:56.761Z,0.05
2017-02-22T02:57:07.081Z,0.11
2017-02-22T02:58:17.774Z,0.19
2017-02-22T02:59:28.472Z,0.15
2017-02-22T03:00:39.169Z,0.15
2017-02-22T03:01:49.874Z,0.18
2017-02-22T03:03:00.570Z,0.11
2017-02-22T03:04:10.875Z,0.15
2017-02-22T03:05:21.586Z,0.13
2017-02-22T03:06:32.309Z,0.19
2017-02-22T03:07:43.003Z,0.19
2017-02-22T03:08:53.704Z,0.19
2017-02-22T03:10:04.403Z,0.23
2017-02-22T03:11:14.701Z,0.19
2017-02-22T03:12:25.418Z,0.13
2017-02-22T03:13:36.141Z,0.24
2017-02-22T03:14:46.832Z,0.24
2017-02-22T03:15:57.556Z,0.23
2017-02-22T03:17:08.249Z,0.29
2017-02-22T03:18:18.284Z,0.29
2017-02-22T03:19:28.601Z,0.34
2017-02-22T03:20:38.919Z,0.31
2017-02-22T03:21:49.618Z,0.31
2017-02-22T03:23:00.332Z,0.27
2017-02-22T03:24:11.036Z,0.26
2017-02-22T03:25:21.742Z,0.2
2017-02-22T03:26:32.063Z,0.26
2017-02-22T03:27:42.792Z,0.24
2017-02-22T03:28:53.098Z,0.29
2017-02-22T03:30:03.794Z,0.2
2017-02-22T03:31:14.485Z,0.26
2017-02-22T03:32:25.193Z,0.26
2017-02-22T03:33:35.508Z,0.26
2017-02-22T03:34:46.229Z,0.23
2017-02-22T03:35:56.933Z,0.3
2017-02-22T03:37:07.238Z,0.3
2017-02-22T03:38:17.942Z,0.24
2017-02-22T03:39:28.659Z,0.3
2017-02-22T03:40:39.382Z,0.31
2017-02-22T03:41:50.078Z,0.26
2017-02-22T03:43:00.780Z,0.34
2017-02-22T03:44:10.676Z,0.24
2017-02-22T03:45:21.366Z,0.31
2017-02-22T03:46:32.081Z,0.33
2017-02-22T03:47:42.774Z,0.3
2017-02-22T03:48:53.464Z,0.36
2017-02-22T03:50:04.162Z,0.26
2017-02-22T03:51:14.871Z,0.36
2017-02-22T03:52:25.582Z,0.39
2017-02-22T03:53:35.877Z,0.39
2017-02-22T03:54:46.583Z,0.31
2017-02-22T03:55:56.904Z,0.39
2017-02-22T03:57:07.608Z,0.36
2017-02-22T03:58:18.307Z,0.23
2017-02-22T03:59:28.231Z,0.15
2017-02-22T04:00:38.937Z,0.23
2017-02-22T04:01:49.637Z,0.24
2017-02-22T04:03:00.331Z,0.13
2017-02-22T04:04:10.646Z,0.15
2017-02-22T04:05:21.347Z,0.08
2017-02-22T04:06:31.661Z,0.06
2017-02-22T04:07:42.357Z,-0.03
2017-02-22T04:08:53.060Z,-0.03
2017-02-22T04:10:03.379Z,-0.05
2017-02-22T04:11:14.096Z,-0.03
2017-02-22T04:12:24.787Z,0.02
2017-02-22T04:13:35.089Z,0.06
2017-02-22T04:14:45.402Z,-0.03
2017-02-22T04:15:55.700Z,-0.07
2017-02-22T04:17:06.405Z,0.11
2017-02-22T04:18:17.115Z,0.08
2017-02-22T04:19:27.819Z,0.08
2017-02-22T04:20:38.113Z,-0.05
2017-02-22T04:21:48.418Z,0.01
2017-02-22T04:22:58.739Z,0.02
2017-02-22T04:24:09.457Z,0.02
2017-02-22T04:25:19.777Z,-0.05
2017-02-22T04:26:30.475Z,0.11
2017-02-22T04:27:41.181Z,0.12
2017-02-22T04:28:51.902Z,0.09
2017-02-22T04:30:02.618Z,0
2017-02-22T04:31:12.912Z,0.09
2017-02-22T04:32:23.612Z,0.05
2017-02-22T04:33:34.315Z,0.01
2017-02-22T04:34:45.023Z,0.02
2017-02-22T04:35:55.332Z,0.09
2017-02-22T04:37:06.036Z,0.06
2017-02-22T04:38:16.736Z,0.12
2017-02-22T04:39:27.430Z,0.15
2017-02-22T04:40:37.749Z,0.11
2017-02-22T04:41:48.493Z,0.06
2017-02-22T04:42:58.807Z,0.15
2017-02-22T04:44:09.503Z,0.15
2017-02-22T04:45:19.826Z,0.15
2017-02-22T04:46:30.531Z,0.19
2017-02-22T04:47:41.248Z,0.18
2017-02-22T04:48:51.963Z,0.08
2017-02-22T04:50:02.669Z,0.15
2017-02-22T04:51:12.995Z,0.23
2017-02-22T04:52:23.701Z,0.27
2017-02-22T04:53:34.409Z,0.3
2017-02-22T04:54:44.724Z,0.27
2017-02-22T04:55:55.447Z,0.27
2017-02-22T04:57:05.744Z,0.26
2017-02-22T04:58:16.099Z,0.31
2017-02-22T04:59:26.813Z,0.34
2017-02-22T05:00:37.503Z,0.3
2017-02-22T05:01:47.802Z,0.33
2017-02-22T05:02:57.722Z,0.29
2017-02-22T05:04:08.444Z,0.3
2017-02-22T05:05:18.754Z,0.31
2017-02-22T05:06:29.472Z,0.33
2017-02-22T05:07:40.172Z,0.34
2017-02-22T05:08:50.898Z,0.24
2017-02-22T05:10:01.209Z,0.3
2017-02-22T05:11:11.513Z,0.3
2017-02-22T05:12:22.211Z,0.31
2017-02-22T05:13:32.515Z,0.29
2017-02-22T05:14:43.215Z,0.29
2017-02-22T05:15:53.923Z,0.33
2017-02-22T05:17:04.249Z,0.3
2017-02-22T05:18:14.564Z,0.26
2017-02-22T05:19:25.262Z,0.3
2017-02-22T05:20:35.960Z,0.29
2017-02-22T05:21:46.668Z,0.34
2017-02-22T05:22:57.369Z,0.33
2017-02-22T05:24:07.668Z,0.31
2017-02-22T05:25:18.376Z,0.33
2017-02-22T05:26:28.676Z,0.27
2017-02-22T05:27:39.388Z,0.33
2017-02-22T05:28:49.708Z,0.33
2017-02-22T05:30:00.412Z,0.42
2017-02-22T05:31:11.138Z,0.31
2017-02-22T05:32:21.840Z,0.48
2017-02-22T05:33:32.144Z,0.48
2017-02-22T05:34:42.837Z,0.61
2017-02-22T05:35:53.159Z,0.58
2017-02-22T05:37:03.876Z,0.73
2017-02-22T05:38:14.575Z,0.74
2017-02-22T05:39:25.283Z,0.82
2017-02-22T05:40:35.996Z,0.81
2017-02-22T05:41:46.693Z,0.91
2017-02-22T05:42:56.638Z,0.85
2017-02-22T05:44:06.935Z,0.92
2017-02-22T05:45:17.256Z,0.94
2017-02-22T05:46:27.967Z,1.03
2017-02-22T05:47:38.677Z,0.99
2017-02-22T05:48:48.987Z,0.99
2017-02-22T05:49:59.686Z,1
2017-02-22T05:51:10.408Z,1
2017-02-22T05:52:20.720Z,0.99
2017-02-22T05:53:31.428Z,0.99
2017-02-22T05:54:41.750Z,1.07
2017-02-22T05:55:52.455Z,1.06
2017-02-22T05:57:05.153Z,1.06
2017-02-22T05:58:15.870Z,1.03
2017-02-22T05:59:26.567Z,1.09
2017-02-22T06:00:37.266Z,1.07
2017-02-22T06:01:47.988Z,1.1
2017-02-22T06:02:58.690Z,1.12
2017-02-22T06:04:09.399Z,1.13
2017-02-22T06:05:20.112Z,1.16
2017-02-22T06:06:30.824Z,1.07
2017-02-22T06:07:41.533Z,1.16
2017-02-22T06:08:52.232Z,1.09
2017-02-22T06:10:02.553Z,1.1
2017-02-22T06:11:13.257Z,1.09
2017-02-22T06:12:23.970Z,1.16
2017-02-22T06:13:34.673Z,1.12
2017-02-22T06:14:45.375Z,1.09
2017-02-22T06:15:56.076Z,1.22
2017-02-22T06:17:06.767Z,1.16
2017-02-22T06:18:16.672Z,1.18
2017-02-22T06:19:26.969Z,1.2
2017-02-22T06:20:37.282Z,1.22
2017-02-22T06:21:47.999Z,1.21
2017-02-22T06:22:58.713Z,1.13
2017-02-22T06:24:09.403Z,1.04
2017-02-22T06:25:19.716Z,1.1
2017-02-22T06:26:30.447Z,1.09
2017-02-22T06:27:40.753Z,1.1
2017-02-22T06:28:51.151Z,1.06
2017-02-22T06:30:01.866Z,1.04
2017-02-22T06:31:12.173Z,1.09
2017-02-22T06:32:22.473Z,0.94
2017-02-22T06:33:33.171Z,1.02
2017-02-22T06:34:43.888Z,1
2017-02-22T06:35:54.581Z,1.02
2017-02-22T06:37:05.316Z,0.96
2017-02-22T06:38:15.624Z,0.96
2017-02-22T06:39:26.351Z,0.96
2017-02-22T06:40:37.059Z,1.02
2017-02-22T06:41:47.803Z,1.03
2017-02-22T06:42:58.509Z,1.03
2017-02-22T06:44:09.203Z,1.14
2017-02-22T06:45:19.895Z,1.13
2017-02-22T06:46:30.606Z,1.1
2017-02-22T06:47:41.304Z,1.07
2017-02-22T06:48:52.009Z,0.99
2017-02-22T06:50:02.727Z,0.91
2017-02-22T06:51:13.422Z,0.81
2017-02-22T06:52:24.128Z,0.91
2017-02-22T06:53:34.444Z,0.78
2017-02-22T06:54:45.143Z,0.81
2017-02-22T06:55:55.457Z,0.86
2017-02-22T06:57:06.158Z,0.84
2017-02-22T06:58:16.471Z,0.84
2017-02-22T06:59:27.169Z,0.91
2017-02-22T07:00:37.909Z,0.94
2017-02-22T07:01:48.636Z,1
2017-02-22T07:02:59.341Z,1.09
2017-02-22T07:04:09.667Z,1.06
2017-02-22T07:05:19.982Z,1.09
2017-02-22T07:06:30.694Z,1.2
2017-02-22T07:07:41.404Z,1.13
2017-02-22T07:08:52.122Z,1.16
2017-02-22T07:10:02.424Z,1.22
2017-02-22T07:11:13.126Z,1.2
2017-02-22T07:12:23.427Z,1.2
2017-02-22T07:13:34.124Z,1.22
2017-02-22T07:14:44.826Z,1.22
2017-02-22T07:15:55.526Z,1.24
2017-02-22T07:17:06.254Z,1.22
2017-02-22T07:18:16.942Z,1.3
2017-02-22T07:19:27.652Z,1.25
2017-02-22T07:20:37.957Z,1.21
2017-02-22T07:21:48.661Z,1.3
2017-02-22T07:22:59.375Z,1.28
2017-02-22T07:24:09.679Z,1.25
2017-02-22T07:25:19.993Z,1.28
2017-02-22T07:26:30.694Z,1.3
2017-02-22T07:27:41.394Z,1.31
2017-02-22T07:28:51.302Z,1.3
2017-02-22T07:30:01.638Z,1.36
2017-02-22T07:31:12.328Z,1.34
2017-02-22T07:32:22.636Z,1.4
2017-02-22T07:33:33.329Z,1.32
2017-02-22T07:34:44.030Z,1.39
2017-02-22T07:35:54.744Z,1.38
2017-02-22T07:37:05.453Z,1.46
2017-02-22T07:38:15.751Z,1.46
2017-02-22T07:39:26.470Z,1.5
2017-02-22T07:40:37.181Z,1.49
2017-02-22T07:41:47.491Z,1.48
2017-02-22T07:42:56.991Z,1.5
2017-02-22T07:44:07.698Z,1.53
2017-02-22T07:45:18.025Z,1.42
2017-02-22T07:46:28.726Z,1.46
2017-02-22T07:47:39.419Z,1.46
2017-02-22T07:48:50.165Z,1.45
2017-02-22T07:50:00.868Z,1.45
2017-02-22T07:51:11.574Z,1.46
2017-02-22T07:52:22.278Z,1.43
2017-02-22T07:53:32.977Z,1.48
2017-02-22T07:54:43.682Z,1.49
2017-02-22T07:55:54.399Z,1.5
2017-02-22T07:57:05.115Z,1.53
2017-02-22T07:58:15.826Z,1.52
2017-02-22T07:59:26.544Z,1.56
2017-02-22T08:00:37.239Z,1.57
2017-02-22T08:01:47.945Z,1.57
2017-02-22T08:02:58.640Z,1.48
2017-02-22T08:04:09.340Z,1.57
2017-02-22T08:05:19.631Z,1.45
2017-02-22T08:06:30.326Z,1.57
2017-02-22T08:07:41.020Z,1.57
2017-02-22T08:08:51.732Z,1.61
2017-02-22T08:10:02.443Z,1.64
2017-02-22T08:11:12.759Z,1.58
2017-02-22T08:12:23.458Z,1.57
2017-02-22T08:13:34.158Z,1.58
2017-02-22T08:14:44.483Z,1.57
2017-02-22T08:15:55.179Z,1.6
2017-02-22T08:17:05.880Z,1.6
2017-02-22T08:18:16.193Z,1.66
2017-02-22T08:19:26.886Z,1.7
2017-02-22T08:20:37.581Z,1.64
2017-02-22T08:21:48.310Z,1.76
2017-02-22T08:22:58.636Z,1.61
2017-02-22T08:24:08.944Z,1.75
2017-02-22T08:25:19.632Z,1.74
2017-02-22T08:26:30.341Z,1.71
2017-02-22T08:27:40.641Z,1.79
2017-02-22T08:28:51.351Z,1.75
2017-02-22T08:30:01.646Z,1.75
2017-02-22T08:31:12.346Z,1.81
2017-02-22T08:32:23.051Z,1.82
2017-02-22T08:33:33.358Z,1.85
2017-02-22T08:34:43.679Z,1.88
2017-02-22T08:35:54.384Z,1.75
2017-02-22T08:37:05.083Z,1.7
2017-02-22T08:38:14.997Z,1.75
2017-02-22T08:39:25.706Z,1.74
2017-02-22T08:40:36.399Z,1.64
2017-02-22T08:41:47.091Z,1.64
2017-02-22T08:42:57.787Z,1.6
2017-02-22T08:44:08.100Z,1.6
2017-02-22T08:45:18.803Z,1.68
2017-02-22T08:46:29.503Z,1.63
2017-02-22T08:47:40.214Z,1.68
2017-02-22T08:48:50.905Z,1.64
2017-02-22T08:50:01.607Z,1.52
2017-02-22T08:51:12.303Z,1.58
2017-02-22T08:52:22.601Z,1.57
2017-02-22T08:53:33.297Z,1.56
2017-02-22T08:54:43.999Z,1.42
2017-02-22T08:55:54.719Z,1.39
2017-02-22T08:57:05.427Z,1.34
2017-02-22T08:58:15.362Z,1.32
2017-02-22T08:59:26.068Z,1.24
2017-02-22T09:00:36.801Z,1.21
2017-02-22T09:01:47.095Z,1.21
2017-02-22T09:02:57.798Z,1.07
2017-02-22T09:04:08.127Z,1.16
2017-02-22T09:05:17.638Z,1.16
2017-02-22T09:06:28.341Z,1.25
2017-02-22T09:07:39.036Z,1.25
2017-02-22T09:08:49.351Z,1.32
2017-02-22T09:09:59.645Z,1.31
2017-02-22T09:11:10.353Z,1.31
2017-02-22T09:12:21.061Z,1.43
2017-02-22T09:13:31.765Z,1.45
2017-02-22T09:14:42.464Z,1.4
2017-02-22T09:15:52.781Z,1.49
2017-02-22T09:17:02.719Z,1.5
2017-02-22T09:18:13.435Z,1.56
2017-02-22T09:19:24.171Z,1.6
2017-02-22T09:20:34.925Z,1.56
2017-02-22T09:21:45.623Z,1.57
2017-02-22T09:22:56.320Z,1.58
2017-02-22T09:24:07.033Z,1.63
2017-02-22T09:25:17.752Z,1.61
2017-02-22T09:26:28.454Z,1.7
2017-02-22T09:27:39.182Z,1.84
2017-02-22T09:28:49.476Z,1.85
2017-02-22T09:30:00.179Z,1.97
2017-02-22T09:31:10.487Z,2
2017-02-22T09:32:20.800Z,2
2017-02-22T09:33:31.496Z,2.04
2017-02-22T09:34:42.144Z,2
2017-02-22T09:35:52.852Z,1.95
2017-02-22T09:37:03.583Z,2.04
2017-02-22T09:38:14.284Z,1.97
2017-02-22T09:39:24.998Z,1.95
2017-02-22T09:40:35.690Z,1.85
2017-02-22T09:41:46.440Z,1.88
2017-02-22T09:42:56.759Z,1.84
2017-02-22T09:44:07.461Z,1.84
2017-02-22T09:45:17.371Z,1.81
2017-02-22T09:46:28.085Z,1.85
2017-02-22T09:47:38.802Z,1.81
2017-02-22T09:48:49.503Z,1.81
2017-02-22T09:50:00.203Z,1.88
2017-02-22T09:51:10.914Z,1.88
2017-02-22T09:52:21.238Z,1.93
2017-02-22T09:53:31.969Z,2
2017-02-22T09:54:42.671Z,1.97
2017-02-22T09:55:53.384Z,2
2017-02-22T09:57:04.093Z,2.07
2017-02-22T09:58:14.804Z,2.1
2017-02-22T09:59:25.508Z,2.12
2017-02-22T10:00:36.205Z,2.19
2017-02-22T10:01:46.915Z,2.21
2017-02-22T10:02:57.614Z,2.23
2017-02-22T10:04:07.934Z,2.28
2017-02-22T10:05:18.265Z,2.34
2017-02-22T10:06:28.560Z,2.34
2017-02-22T10:07:39.276Z,2.4
2017-02-22T10:08:49.970Z,2.4
2017-02-22T10:10:00.698Z,2.41
2017-02-22T10:11:10.998Z,2.5
2017-02-22T10:12:21.303Z,2.51
2017-02-22T10:13:31.625Z,2.55
2017-02-22T10:14:41.952Z,2.58
2017-02-22T10:15:52.278Z,2.54
2017-02-22T10:17:02.582Z,2.58
2017-02-22T10:18:13.272Z,2.55
2017-02-22T10:19:23.991Z,2.61
2017-02-22T10:20:34.681Z,2.57
2017-02-22T10:21:45.380Z,2.57
2017-02-22T10:22:56.084Z,2.54
2017-02-22T10:24:06.030Z,2.52
2017-02-22T10:25:16.349Z,2.61
2017-02-22T10:26:27.057Z,2.62
2017-02-22T10:27:37.780Z,2.73
2017-02-22T10:28:48.474Z,2.72
2017-02-22T10:29:59.180Z,2.73
2017-02-22T10:31:09.494Z,2.73
2017-02-22T10:32:20.209Z,2.75
2017-02-22T10:33:30.115Z,2.79
2017-02-22T10:34:40.842Z,2.73
2017-02-22T10:35:51.138Z,2.76
2017-02-22T10:37:01.437Z,2.77
2017-02-22T10:38:12.132Z,2.87
2017-02-22T10:39:22.860Z,2.87
2017-02-22T10:40:33.570Z,2.95
2017-02-22T10:41:44.276Z,2.94
2017-02-22T10:42:54.987Z,3
2017-02-22T10:44:05.711Z,2.97
2017-02-22T10:45:16.011Z,2.98
2017-02-22T10:46:26.311Z,3
2017-02-22T10:47:37.032Z,3.05
2017-02-22T10:48:47.764Z,3.13
2017-02-22T10:49:58.455Z,3.09
2017-02-22T10:51:09.149Z,3.16
2017-02-22T10:52:19.445Z,3.21
2017-02-22T10:53:30.164Z,3.29
2017-02-22T10:54:40.874Z,3.3
2017-02-22T10:55:51.597Z,3.41
2017-02-22T10:57:02.314Z,3.34
2017-02-22T10:58:13.017Z,3.43
2017-02-22T10:59:23.326Z,3.4
2017-02-22T11:00:34.052Z,3.4
2017-02-22T11:01:44.765Z,3.52
2017-02-22T11:02:55.458Z,3.48
2017-02-22T11:04:06.163Z,3.46
2017-02-22T11:05:16.482Z,3.61
2017-02-22T11:06:26.791Z,3.74
2017-02-22T11:07:37.500Z,4.04
2017-02-22T11:08:48.211Z,4.3
2017-02-22T11:09:58.518Z,4.49
2017-02-22T11:11:08.430Z,4.79
2017-02-22T11:12:19.138Z,5
2017-02-22T11:13:29.877Z,5.25
2017-02-22T11:14:40.585Z,5.54
2017-02-22T11:15:50.901Z,5.83
2017-02-22T11:17:01.611Z,6.13
2017-02-22T11:18:12.307Z,6.41
2017-02-22T11:19:21.834Z,6.53
2017-02-22T11:20:32.562Z,6.7
2017-02-22T11:21:43.277Z,6.87
2017-02-22T11:22:53.971Z,7.18
2017-02-22T11:24:04.722Z,7.31
2017-02-22T11:25:15.060Z,7.51
2017-02-22T11:26:25.767Z,7.62
2017-02-22T11:27:36.489Z,7.7
2017-02-22T11:28:47.204Z,7.66
2017-02-22T11:29:57.539Z,7.74
2017-02-22T11:31:07.867Z,7.95
2017-02-22T11:32:18.584Z,8.23
2017-02-22T11:33:29.286Z,8.32
2017-02-22T11:34:40.001Z,8.45
2017-02-22T11:35:50.725Z,8.66
2017-02-22T11:37:01.054Z,8.81
2017-02-22T11:38:11.755Z,8.82
2017-02-22T11:39:22.053Z,8.77
2017-02-22T11:40:32.388Z,8.96
2017-02-22T11:41:43.102Z,8.99
2017-02-22T11:42:53.426Z,9.11
2017-02-22T11:44:04.138Z,9.44
2017-02-22T11:45:14.849Z,9.7
2017-02-22T11:46:25.552Z,10.18
2017-02-22T11:47:35.867Z,10.58
2017-02-22T11:48:46.566Z,11
2017-02-22T11:49:57.270Z,11.12
2017-02-22T11:51:07.589Z,11.1
2017-02-22T11:52:18.317Z,11.4
2017-02-22T11:53:29.027Z,11.4
2017-02-22T11:54:39.742Z,11.67
2017-02-22T11:55:50.055Z,11.93
2017-02-22T11:57:00.362Z,12.21
2017-02-22T11:58:11.087Z,12.36
2017-02-22T11:59:21.814Z,12.7
2017-02-22T12:00:32.535Z,13.11
2017-02-22T12:01:42.859Z,13.4
2017-02-22T12:02:53.194Z,13.65
2017-02-22T12:04:03.927Z,13.79
2017-02-22T12:05:14.244Z,14.05
2017-02-22T12:06:24.578Z,14.15
2017-02-22T12:07:35.564Z,14.28
2017-02-22T12:08:46.277Z,14.67
2017-02-22T12:09:56.590Z,15.02
2017-02-22T12:11:07.300Z,15.23
2017-02-22T12:12:17.616Z,15.48
2017-02-22T12:13:28.332Z,15.7
2017-02-22T12:14:39.052Z,15.9
2017-02-22T12:15:49.805Z,16
2017-02-22T12:17:00.528Z,16.13
2017-02-22T12:18:11.264Z,16.26
2017-02-22T12:19:21.973Z,16.34
2017-02-22T12:20:32.699Z,16.12
2017-02-22T12:21:43.453Z,16.02
2017-02-22T12:22:54.196Z,15.92
2017-02-22T12:24:04.920Z,15.98
2017-02-22T12:25:15.635Z,15.99
2017-02-22T12:26:26.369Z,15.91
2017-02-22T12:27:37.085Z,16.13
2017-02-22T12:28:47.816Z,16.32
2017-02-22T12:29:58.540Z,16.61
2017-02-22T12:31:09.263Z,16.73
2017-02-22T12:32:19.189Z,16.77
2017-02-22T12:33:29.904Z,16.83
2017-02-22T12:34:40.616Z,17.07
2017-02-22T12:35:51.333Z,17.07
2017-02-22T12:37:01.666Z,17.31
2017-02-22T12:38:12.397Z,17.52
2017-02-22T12:39:22.721Z,17.73
2017-02-22T12:40:33.438Z,17.86
2017-02-22T12:41:44.156Z,17.59
2017-02-22T12:42:54.871Z,17.42
2017-02-22T12:44:05.194Z,17.41
2017-02-22T12:45:15.915Z,17.31
2017-02-22T12:46:26.292Z,17.17
2017-02-22T12:47:37.020Z,17.17
2017-02-22T12:48:47.349Z,16.97
2017-02-22T12:49:57.675Z,16.8
2017-02-22T12:51:08.005Z,16.83
2017-02-22T12:52:18.727Z,16.84
2017-02-22T12:53:29.451Z,16.87
2017-02-22T12:54:39.758Z,16.72
2017-02-22T12:55:50.075Z,16.76
2017-02-22T12:57:00.442Z,16.84
2017-02-22T12:58:11.181Z,16.95
2017-02-22T12:59:21.900Z,17.1
2017-02-22T13:00:32.621Z,17.38
2017-02-22T13:01:43.340Z,17.5
2017-02-22T13:02:54.068Z,17.34
2017-02-22T13:04:04.798Z,17.57
2017-02-22T13:05:15.513Z,17.46
2017-02-22T13:06:25.827Z,17.3
2017-02-22T13:07:36.551Z,16.97
2017-02-22T13:08:47.282Z,16.8
2017-02-22T13:09:57.994Z,16.29
2017-02-22T13:11:08.327Z,15.85
2017-02-22T13:12:18.275Z,15.81
2017-02-22T13:13:28.593Z,15.59
2017-02-22T13:14:39.312Z,15.18
2017-02-22T13:15:50.035Z,14.41
2017-02-22T13:17:00.367Z,14.11
2017-02-22T13:18:11.098Z,13.61
2017-02-22T13:19:21.420Z,12.72
2017-02-22T13:20:32.151Z,11.77
2017-02-22T13:21:42.856Z,11.02
2017-02-22T13:22:53.177Z,10.3
2017-02-22T13:24:03.909Z,9.84
2017-02-22T13:25:14.638Z,9.44
2017-02-22T13:26:25.358Z,9.26
2017-02-22T13:27:36.079Z,9.27
2017-02-22T13:28:46.820Z,8.53
2017-02-22T13:29:57.559Z,8.18
2017-02-22T13:31:08.299Z,7.67
2017-02-22T13:32:19.009Z,7.37
2017-02-22T13:33:29.728Z,7.18
2017-02-22T13:34:40.438Z,7.08
2017-02-22T13:35:51.200Z,6.8
2017-02-22T13:37:01.130Z,7.04
2017-02-22T13:38:11.046Z,7.01
2017-02-22T13:39:21.771Z,6.8
2017-02-22T13:40:32.486Z,6.87
2017-02-22T13:41:43.197Z,6.67
2017-02-22T13:42:53.533Z,6.67
2017-02-22T13:44:04.237Z,6.47
2017-02-22T13:45:14.951Z,6.36
2017-02-22T13:46:25.271Z,5.95
2017-02-22T13:47:35.994Z,5.61
2017-02-22T13:48:46.701Z,5.36
2017-02-22T13:49:57.426Z,5.22
2017-02-22T13:51:07.740Z,4.94
2017-02-22T13:52:17.656Z,4.79
2017-02-22T13:53:28.361Z,4.79
2017-02-22T13:54:39.070Z,4.49
2017-02-22T13:55:49.784Z,4.5
2017-02-22T13:57:00.113Z,4.5
2017-02-22T13:58:10.835Z,4.48
2017-02-22T13:59:21.134Z,4.57
2017-02-22T14:00:31.827Z,4.48
2017-02-22T14:01:42.553Z,4.48
2017-02-22T14:02:53.255Z,4.28
2017-02-22T14:04:03.187Z,4.07
2017-02-22T14:05:13.905Z,3.95
2017-02-22T14:06:24.607Z,3.84
2017-02-22T14:07:35.323Z,3.7
2017-02-22T14:08:46.014Z,3.63
2017-02-22T14:09:56.335Z,3.45
2017-02-22T14:11:06.652Z,3.27
2017-02-22T14:12:16.956Z,3.12
2017-02-22T14:13:27.672Z,3.15
2017-02-22T14:14:38.390Z,3.09
2017-02-22T14:15:49.120Z,3.16
2017-02-22T14:16:59.420Z,3.27
2017-02-22T14:18:10.125Z,3.3
2017-02-22T14:19:20.433Z,3.37
2017-02-22T14:20:31.146Z,3.41
2017-02-22T14:21:41.468Z,3.34
2017-02-22T14:22:52.173Z,3.4
2017-02-22T14:24:02.473Z,3.4
2017-02-22T14:25:13.201Z,3.43
2017-02-22T14:26:23.907Z,3.48
2017-02-22T14:27:34.604Z,3.41
2017-02-22T14:28:44.922Z,3.29
2017-02-22T14:29:55.227Z,3.19
2017-02-22T14:31:05.558Z,3.11
2017-02-22T14:32:15.079Z,3.06
2017-02-22T14:33:25.404Z,3.19
2017-02-22T14:34:36.144Z,3.18
2017-02-22T14:35:46.869Z,3.15
2017-02-22T14:36:57.187Z,3.13
2017-02-22T14:38:07.495Z,3.11
2017-02-22T14:39:17.847Z,2.98
2017-02-22T14:40:28.549Z,2.94
2017-02-22T14:41:39.253Z,2.83
2017-02-22T14:42:49.977Z,2.82
2017-02-22T14:44:00.680Z,2.75
2017-02-22T14:45:11.390Z,2.75
2017-02-22T14:46:22.100Z,2.61
2017-02-22T14:47:32.838Z,2.58
2017-02-22T14:48:43.549Z,2.44
2017-02-22T14:49:53.846Z,2.34
2017-02-22T14:51:04.178Z,2.21
2017-02-22T14:52:14.876Z,2.26
2017-02-22T14:53:25.603Z,2.16
2017-02-22T14:54:36.315Z,2.08
2017-02-22T14:55:47.037Z,2.01
2017-02-22T14:56:57.357Z,1.95
2017-02-22T14:58:07.707Z,1.86
2017-02-22T14:59:18.431Z,1.97
2017-02-22T15:00:29.137Z,1.86
2017-02-22T15:01:39.858Z,1.89
2017-02-22T15:02:50.581Z,1.95
2017-02-22T15:04:01.278Z,2.04
2017-02-22T15:05:11.982Z,2.07
2017-02-22T15:06:22.279Z,2
2017-02-22T15:07:32.988Z,2.05
2017-02-22T15:08:43.684Z,2.07
2017-02-22T15:09:54.393Z,2.03
2017-02-22T15:11:05.115Z,2.04
2017-02-22T15:12:15.446Z,2.05
2017-02-22T15:13:26.166Z,2.05
2017-02-22T15:14:36.862Z,2.1
2017-02-22T15:15:47.596Z,2.1
2017-02-22T15:16:58.313Z,2.05
2017-02-22T15:18:08.612Z,1.97
2017-02-22T15:19:19.318Z,2.03
2017-02-22T15:20:30.020Z,2.07
2017-02-22T15:21:40.724Z,2.14
2017-02-22T15:22:51.437Z,2.15
2017-02-22T15:24:02.137Z,2.14
2017-02-22T15:25:12.464Z,2.08
2017-02-22T15:26:22.770Z,2.23
2017-02-22T15:27:33.467Z,2.22
2017-02-22T15:28:44.168Z,2.21
2017-02-22T15:29:54.861Z,2.25
2017-02-22T15:31:05.555Z,2.16
2017-02-22T15:32:15.851Z,2.21
2017-02-22T15:33:26.542Z,2.19
2017-02-22T15:34:37.247Z,2.16
2017-02-22T15:35:47.939Z,2.15
2017-02-22T15:36:58.255Z,2.18
2017-02-22T15:38:08.990Z,2.22
2017-02-22T15:39:21.390Z,2.18
2017-02-22T15:40:32.095Z,2.36
2017-02-22T15:41:42.804Z,2.23